Hemingford, Nebraska
Current Conditions -  °F | °C
As of 11:53 AM on Saturday 25 Oct 2014 (Local Time) from KAIA Reporting Station
Clear Clear  
Wind Chill: 16°   Ceiling: Unl
Heat Index: 16°   Visibility: 10mi
Dew Point:   Wind: 5mph
Humidity: 44%   Direction: 160°SSE
Pressure: 30.14"   Gusts: NA
Location:  42.32°N, 103.07°W
Report Text: KAIA 251753Z AUTO 16004KT 10SM CLR 16/04 A3014 RMK AO2 SLP199 T01610039 10167 21022 58014 $
Loading
Personal Weather Stations






























Interactive Weather Map
Tropical Storm Tracking
New forecast layout! Learn more

10-Day Weather Forecast

Advertisements
Track Severe Weather on mobile